createdAt,value
2022-08-24T00:00:55.794Z,18.30
2022-08-24T00:01:59.083Z,18.30
2022-08-24T00:03:01.617Z,18.30
2022-08-24T00:04:05.325Z,18.30
2022-08-24T00:05:14.025Z,18.40
2022-08-24T00:06:21.654Z,18.30
2022-08-24T00:07:27.931Z,18.30
2022-08-24T00:08:32.050Z,18.30
2022-08-24T00:09:34.872Z,18.20
2022-08-24T00:10:38.256Z,18.20
2022-08-24T00:11:40.447Z,18.20
2022-08-24T00:12:46.235Z,18.20
2022-08-24T00:13:50.745Z,18.20
2022-08-24T00:14:53.670Z,18.10
2022-08-24T00:15:56.585Z,18.10
2022-08-24T00:17:00.455Z,18.10
2022-08-24T00:18:02.797Z,18.10
2022-08-24T00:19:06.184Z,18.10
2022-08-24T00:20:11.430Z,18.10
2022-08-24T00:21:17.636Z,18.10
2022-08-24T00:22:20.947Z,18.10
2022-08-24T00:23:24.011Z,18.10
2022-08-24T00:24:26.735Z,18.10
2022-08-24T00:25:29.926Z,18.10
2022-08-24T00:26:32.093Z,18.10
2022-08-24T00:27:36.650Z,18.00
2022-08-24T00:28:38.643Z,18.00
2022-08-24T00:29:42.905Z,18.00
2022-08-24T00:30:45.744Z,18.00
2022-08-24T00:31:49.150Z,18.00
2022-08-24T00:32:51.424Z,18.00
2022-08-24T00:33:54.700Z,17.90
2022-08-24T00:34:59.146Z,17.90
2022-08-24T00:36:01.530Z,17.90
2022-08-24T00:37:05.579Z,17.90
2022-08-24T00:38:08.321Z,17.90
2022-08-24T00:39:12.630Z,17.90
2022-08-24T00:40:19.315Z,17.90
2022-08-24T00:41:22.855Z,18.00
2022-08-24T00:42:25.189Z,17.90
2022-08-24T00:43:28.103Z,18.00
2022-08-24T00:44:31.301Z,17.90
2022-08-24T00:45:42.876Z,18.00
2022-08-24T00:46:52.079Z,17.90
2022-08-24T00:47:59.309Z,18.00
2022-08-24T00:49:06.019Z,17.90
2022-08-24T00:50:12.236Z,17.90
2022-08-24T00:51:19.950Z,17.90
2022-08-24T00:52:27.998Z,17.90
2022-08-24T00:53:36.107Z,17.90
2022-08-24T00:54:46.262Z,17.90
2022-08-24T00:55:53.956Z,18.00
2022-08-24T00:57:02.490Z,17.90
2022-08-24T00:58:11.269Z,18.00
2022-08-24T00:59:23.176Z,17.90
2022-08-24T01:00:29.872Z,17.90
2022-08-24T01:01:35.345Z,18.00
2022-08-24T01:02:43.411Z,17.90
2022-08-24T01:03:46.334Z,18.00
2022-08-24T01:04:53.278Z,17.90
2022-08-24T01:05:56.646Z,17.90
2022-08-24T01:07:00.074Z,17.90
2022-08-24T01:08:04.522Z,18.00
2022-08-24T01:09:07.675Z,17.90
2022-08-24T01:10:15.134Z,18.00
2022-08-24T01:11:21.792Z,17.90
2022-08-24T01:12:27.040Z,17.90
2022-08-24T01:13:33.980Z,17.80
2022-08-24T01:14:37.528Z,17.80
2022-08-24T01:15:43.515Z,17.80
2022-08-24T01:17:05.582Z,17.80
2022-08-24T01:18:29.874Z,17.80
2022-08-24T01:19:36.546Z,17.80
2022-08-24T01:20:39.917Z,17.80
2022-08-24T01:21:47.959Z,17.70
2022-08-24T01:22:59.855Z,17.70
2022-08-24T01:24:10.056Z,17.80
2022-08-24T01:25:13.223Z,17.70
2022-08-24T01:26:18.978Z,17.70
2022-08-24T01:27:28.141Z,17.70
2022-08-24T01:28:30.987Z,17.70
2022-08-24T01:29:37.082Z,17.70
2022-08-24T01:30:39.953Z,17.70
2022-08-24T01:31:43.096Z,17.70
2022-08-24T01:32:54.046Z,17.70
2022-08-24T01:33:58.258Z,17.80
2022-08-24T01:35:00.725Z,17.70
2022-08-24T01:36:18.868Z,17.70
2022-08-24T01:37:22.642Z,17.70
2022-08-24T01:38:26.344Z,17.70
2022-08-24T01:39:32.926Z,17.70
2022-08-24T01:40:39.331Z,17.70
2022-08-24T01:41:41.499Z,17.70
2022-08-24T01:42:49.246Z,17.70
2022-08-24T01:43:51.549Z,17.70
2022-08-24T01:44:55.704Z,17.60
2022-08-24T01:45:58.897Z,17.60
2022-08-24T01:47:06.734Z,17.60
2022-08-24T01:48:10.711Z,17.60
2022-08-24T01:49:14.240Z,17.60
2022-08-24T01:50:17.205Z,17.60
2022-08-24T01:51:21.289Z,17.50
2022-08-24T01:52:25.864Z,17.50
2022-08-24T01:53:29.238Z,17.50
2022-08-24T01:54:33.943Z,17.50
2022-08-24T01:55:37.674Z,17.40
2022-08-24T01:56:40.124Z,17.50
2022-08-24T01:57:43.357Z,17.50
2022-08-24T01:58:46.659Z,17.50
2022-08-24T01:59:49.696Z,17.50
2022-08-24T02:00:51.986Z,17.50
2022-08-24T02:01:58.049Z,17.50
2022-08-24T02:03:00.383Z,17.40
2022-08-24T02:04:06.512Z,17.50
2022-08-24T02:05:13.042Z,17.50
2022-08-24T02:06:16.435Z,17.50
2022-08-24T02:07:19.694Z,17.50
2022-08-24T02:08:22.958Z,17.50
2022-08-24T02:09:27.990Z,17.50
2022-08-24T02:10:38.410Z,17.50
2022-08-24T02:11:41.721Z,17.60
2022-08-24T02:12:58.130Z,17.50
2022-08-24T02:14:00.960Z,17.60
2022-08-24T02:15:06.444Z,17.50
2022-08-24T02:16:09.489Z,17.50
2022-08-24T02:17:12.910Z,17.50
2022-08-24T02:18:15.707Z,17.40
2022-08-24T02:19:19.691Z,17.40
2022-08-24T02:20:22.431Z,17.40
2022-08-24T02:21:26.361Z,17.40
2022-08-24T02:22:28.671Z,17.40
2022-08-24T02:23:33.861Z,17.40
2022-08-24T02:24:38.768Z,17.30
2022-08-24T02:25:44.143Z,17.40
2022-08-24T02:26:46.910Z,17.40
2022-08-24T02:27:49.910Z,17.40
2022-08-24T02:28:52.445Z,17.40
2022-08-24T02:29:56.138Z,17.40
2022-08-24T02:30:58.486Z,17.40
2022-08-24T02:32:01.644Z,17.40
2022-08-24T02:33:04.441Z,17.40
2022-08-24T02:34:08.851Z,17.50
2022-08-24T02:35:11.677Z,17.50
2022-08-24T02:36:26.212Z,17.40
2022-08-24T02:37:30.989Z,17.40
2022-08-24T02:38:33.474Z,17.30
2022-08-24T02:39:36.441Z,17.30
2022-08-24T02:40:43.511Z,17.40
2022-08-24T02:41:46.478Z,17.40
2022-08-24T02:42:48.602Z,17.40
2022-08-24T02:43:51.666Z,17.40
2022-08-24T02:44:55.263Z,17.30
2022-08-24T02:45:58.895Z,17.40
2022-08-24T02:47:01.130Z,17.40
2022-08-24T02:48:05.724Z,17.40
2022-08-24T02:49:11.748Z,17.40
2022-08-24T02:50:18.779Z,17.50
2022-08-24T02:51:22.128Z,17.50
2022-08-24T02:52:25.574Z,17.50
2022-08-24T02:53:27.961Z,17.50
2022-08-24T02:54:31.035Z,17.50
2022-08-24T02:55:33.153Z,17.50
2022-08-24T02:56:37.617Z,17.60
2022-08-24T02:57:40.506Z,17.60
2022-08-24T02:58:44.070Z,17.60
2022-08-24T02:59:46.093Z,17.60
2022-08-24T03:00:49.764Z,17.60
2022-08-24T03:01:55.151Z,17.60
2022-08-24T03:02:59.842Z,17.60
2022-08-24T03:04:03.072Z,17.60
2022-08-24T03:05:07.154Z,17.60
2022-08-24T03:06:10.675Z,17.60
2022-08-24T03:07:14.043Z,17.70
2022-08-24T03:08:16.251Z,17.70
2022-08-24T03:09:20.437Z,17.70
2022-08-24T03:10:25.970Z,17.70
2022-08-24T03:11:29.261Z,17.80
2022-08-24T03:12:32.816Z,17.80
2022-08-24T03:13:37.181Z,17.70
2022-08-24T03:14:39.258Z,17.80
2022-08-24T03:15:42.684Z,17.70
2022-08-24T03:16:45.306Z,17.70
2022-08-24T03:17:48.410Z,17.70
2022-08-24T03:18:50.561Z,17.70
2022-08-24T03:19:53.785Z,17.70
2022-08-24T03:20:58.719Z,17.70
2022-08-24T03:22:01.927Z,17.70
2022-08-24T03:23:04.518Z,17.70
2022-08-24T03:24:07.711Z,17.70
2022-08-24T03:25:14.254Z,17.70
2022-08-24T03:26:17.419Z,17.60
2022-08-24T03:27:19.597Z,17.70
2022-08-24T03:28:26.253Z,17.70
2022-08-24T03:29:33.612Z,17.70
2022-08-24T03:30:38.645Z,17.70
2022-08-24T03:31:43.620Z,17.60
2022-08-24T03:32:47.052Z,17.60
2022-08-24T03:33:49.365Z,17.60
2022-08-24T03:34:54.296Z,17.60
2022-08-24T03:35:56.483Z,17.60
2022-08-24T03:36:59.677Z,17.60
2022-08-24T03:38:01.779Z,17.60
2022-08-24T03:39:05.139Z,17.60
2022-08-24T03:40:22.136Z,17.60
2022-08-24T03:41:27.370Z,17.60
2022-08-24T03:42:29.670Z,17.60
2022-08-24T03:43:47.874Z,17.60
2022-08-24T03:44:53.972Z,17.60
2022-08-24T03:45:56.149Z,17.60
2022-08-24T03:46:59.400Z,17.60
2022-08-24T03:48:03.509Z,17.60
2022-08-24T03:49:10.890Z,17.60
2022-08-24T03:50:13.558Z,17.60
2022-08-24T03:51:19.124Z,17.60
2022-08-24T03:52:23.326Z,17.60
2022-08-24T03:53:29.080Z,17.50
2022-08-24T03:54:31.472Z,17.50
2022-08-24T03:55:34.414Z,17.50
2022-08-24T03:56:36.638Z,17.50
2022-08-24T03:57:39.620Z,17.50
2022-08-24T03:58:43.012Z,17.50
2022-08-24T03:59:46.592Z,17.50
2022-08-24T04:00:50.003Z,17.50
2022-08-24T04:01:55.996Z,17.40
2022-08-24T04:02:58.146Z,17.40
2022-08-24T04:04:02.862Z,17.40
2022-08-24T04:05:09.320Z,17.40
2022-08-24T04:06:14.395Z,17.40
2022-08-24T04:07:17.471Z,17.40
2022-08-24T04:08:21.141Z,17.40
2022-08-24T04:09:23.222Z,17.40
2022-08-24T04:10:26.221Z,17.30
2022-08-24T04:11:29.430Z,17.30
2022-08-24T04:12:32.490Z,17.30
2022-08-24T04:13:34.748Z,17.30
2022-08-24T04:14:40.102Z,17.30
2022-08-24T04:15:50.239Z,17.30
2022-08-24T04:16:57.900Z,17.30
2022-08-24T04:18:06.563Z,17.30
2022-08-24T04:19:09.721Z,17.20
2022-08-24T04:20:12.578Z,17.20
2022-08-24T04:21:20.593Z,17.20
2022-08-24T04:22:23.288Z,17.20
2022-08-24T04:23:29.026Z,17.20
2022-08-24T04:24:49.598Z,17.20
2022-08-24T04:25:52.592Z,17.20
2022-08-24T04:26:54.657Z,17.30
2022-08-24T04:27:57.612Z,17.30
2022-08-24T04:28:59.963Z,17.30
2022-08-24T04:30:05.424Z,17.40
2022-08-24T04:31:18.973Z,17.40
2022-08-24T04:32:21.216Z,17.50
2022-08-24T04:33:25.064Z,17.50
2022-08-24T04:34:27.816Z,17.50
2022-08-24T04:35:31.573Z,17.60
2022-08-24T04:36:34.816Z,17.60
2022-08-24T04:37:38.146Z,17.60
2022-08-24T04:38:40.854Z,17.60
2022-08-24T04:40:08.903Z,17.60
2022-08-24T04:41:20.254Z,17.70
2022-08-24T04:42:35.132Z,17.70
2022-08-24T04:43:37.089Z,17.70
2022-08-24T04:44:40.262Z,17.70
2022-08-24T04:45:45.737Z,17.70
2022-08-24T04:46:48.992Z,17.70
2022-08-24T04:47:51.085Z,17.70
2022-08-24T04:48:54.598Z,17.80
2022-08-24T04:49:56.917Z,17.70
2022-08-24T04:51:03.103Z,17.70
2022-08-24T04:52:07.178Z,17.70
2022-08-24T04:53:13.684Z,17.80
2022-08-24T04:54:17.945Z,17.80
2022-08-24T04:55:27.538Z,17.80
2022-08-24T04:56:29.891Z,17.70
2022-08-24T04:57:34.716Z,17.70
2022-08-24T04:58:36.707Z,17.80
2022-08-24T04:59:39.801Z,17.80
2022-08-24T05:00:44.849Z,17.80
2022-08-24T05:01:48.310Z,17.90
2022-08-24T05:02:50.729Z,17.90
2022-08-24T05:03:55.449Z,18.00
2022-08-24T05:04:58.233Z,18.00
2022-08-24T05:06:01.275Z,18.00
2022-08-24T05:07:03.943Z,18.10
2022-08-24T05:08:07.270Z,18.00
2022-08-24T05:09:10.366Z,18.10
2022-08-24T05:10:13.664Z,18.10
2022-08-24T05:11:19.640Z,18.10
2022-08-24T05:12:21.729Z,18.10
2022-08-24T05:13:34.043Z,18.20
2022-08-24T05:14:37.334Z,18.20
2022-08-24T05:15:45.357Z,18.20
2022-08-24T05:16:52.804Z,18.20
2022-08-24T05:17:57.628Z,18.30
2022-08-24T05:19:00.396Z,18.30
2022-08-24T05:20:04.096Z,18.30
2022-08-24T05:21:08.560Z,18.40
2022-08-24T05:22:11.727Z,18.40
2022-08-24T05:23:19.965Z,18.40
2022-08-24T05:24:23.621Z,18.50
2022-08-24T05:25:25.846Z,18.60
2022-08-24T05:26:30.419Z,18.60
2022-08-24T05:27:33.536Z,18.60
2022-08-24T05:28:37.089Z,18.70
2022-08-24T05:29:39.285Z,18.70
2022-08-24T05:30:44.219Z,18.70
2022-08-24T05:31:47.359Z,18.80
2022-08-24T05:32:50.821Z,18.90
2022-08-24T05:33:55.452Z,18.90
2022-08-24T05:35:01.265Z,18.90
2022-08-24T05:36:04.744Z,19.00
2022-08-24T05:37:08.759Z,19.10
2022-08-24T05:38:21.066Z,19.10
2022-08-24T05:39:24.475Z,19.10
2022-08-24T05:40:33.477Z,19.20
2022-08-24T05:41:37.337Z,19.20
2022-08-24T05:42:46.541Z,19.30
2022-08-24T05:43:50.982Z,19.30
2022-08-24T05:44:53.862Z,19.40
2022-08-24T05:45:59.940Z,19.50
2022-08-24T05:47:03.097Z,19.40
2022-08-24T05:48:07.467Z,19.50
2022-08-24T05:49:51.684Z,19.60
2022-08-24T05:50:55.444Z,19.60
2022-08-24T05:52:00.131Z,19.70
2022-08-24T05:53:04.945Z,19.70
2022-08-24T05:54:09.110Z,19.70
2022-08-24T05:55:25.637Z,19.70
2022-08-24T05:56:31.878Z,19.80
2022-08-24T05:57:38.174Z,19.80
2022-08-24T05:58:51.814Z,19.80
2022-08-24T05:59:54.934Z,19.80
2022-08-24T06:01:05.016Z,19.90
2022-08-24T06:02:08.647Z,19.90
2022-08-24T06:03:14.572Z,20.00
2022-08-24T06:04:20.989Z,20.10
2022-08-24T06:05:23.697Z,20.10
2022-08-24T06:06:28.725Z,20.20
2022-08-24T06:07:30.762Z,20.30
2022-08-24T06:08:41.094Z,20.30
2022-08-24T06:09:45.920Z,20.40
2022-08-24T06:10:48.937Z,20.40
2022-08-24T06:11:52.725Z,20.40
2022-08-24T06:12:54.900Z,20.50
2022-08-24T06:14:00.825Z,20.60
2022-08-24T06:15:06.567Z,20.60
2022-08-24T06:16:21.800Z,20.70
2022-08-24T06:17:26.384Z,20.90
2022-08-24T06:18:29.666Z,20.90
2022-08-24T06:19:33.136Z,21.00
2022-08-24T06:20:39.717Z,21.10
2022-08-24T06:21:43.710Z,21.20
2022-08-24T06:22:46.621Z,21.30
2022-08-24T06:23:51.094Z,21.40
2022-08-24T06:25:20.283Z,21.50
2022-08-24T06:26:41.313Z,21.50
2022-08-24T06:27:45.211Z,21.50
2022-08-24T06:28:49.585Z,21.60
2022-08-24T06:29:53.855Z,21.60
2022-08-24T06:31:18.100Z,21.70
2022-08-24T06:32:21.426Z,21.90
2022-08-24T06:33:26.157Z,21.80
2022-08-24T06:34:30.666Z,21.70
2022-08-24T06:35:33.225Z,21.80
2022-08-24T06:36:36.727Z,21.70
2022-08-24T06:37:38.765Z,21.60
2022-08-24T06:38:43.529Z,21.50
2022-08-24T06:39:49.272Z,21.50
2022-08-24T06:40:59.696Z,21.50
2022-08-24T06:42:02.341Z,21.50
2022-08-24T06:43:06.719Z,21.50
2022-08-24T06:44:16.701Z,21.50
2022-08-24T06:45:26.158Z,21.50
2022-08-24T06:46:32.887Z,21.50
2022-08-24T06:47:35.559Z,21.50
2022-08-24T06:48:38.644Z,21.60
2022-08-24T06:49:41.285Z,21.70
2022-08-24T06:50:44.445Z,21.70
2022-08-24T06:51:50.606Z,21.80
2022-08-24T06:52:54.766Z,21.60
2022-08-24T06:53:59.590Z,21.60
2022-08-24T06:55:03.515Z,21.70
2022-08-24T06:56:11.492Z,21.80
2022-08-24T06:57:14.572Z,22.00
2022-08-24T06:58:17.396Z,22.10
2022-08-24T06:59:20.945Z,22.20
2022-08-24T07:00:25.023Z,22.30
2022-08-24T07:01:30.271Z,22.30
2022-08-24T07:02:32.381Z,22.40
2022-08-24T07:03:41.637Z,22.40
2022-08-24T07:05:03.653Z,22.40
2022-08-24T07:06:26.347Z,22.60
2022-08-24T07:07:33.990Z,23.00
2022-08-24T07:08:38.540Z,23.30
2022-08-24T07:09:44.115Z,23.70
2022-08-24T07:11:14.414Z,24.10
2022-08-24T07:12:18.284Z,24.50
2022-08-24T07:13:20.381Z,24.60
2022-08-24T07:14:23.809Z,24.70
2022-08-24T07:15:26.653Z,24.50
2022-08-24T07:16:47.392Z,24.50
2022-08-24T07:17:49.613Z,24.40
2022-08-24T07:18:52.616Z,24.20
2022-08-24T07:19:57.731Z,24.00
2022-08-24T07:21:38.226Z,23.80
2022-08-24T07:22:40.712Z,23.70
2022-08-24T07:23:44.740Z,23.60
2022-08-24T07:24:48.684Z,23.40
2022-08-24T07:25:55.919Z,23.20
2022-08-24T07:26:58.235Z,23.10
2022-08-24T07:28:06.750Z,23.00
2022-08-24T07:29:43.750Z,23.00
2022-08-24T07:30:41.359Z,23.00
2022-08-24T07:31:44.145Z,22.90
2022-08-24T07:32:55.038Z,22.90
2022-08-24T07:33:57.108Z,22.80
2022-08-24T07:35:00.509Z,22.80
2022-08-24T07:36:02.580Z,22.70
2022-08-24T07:37:07.811Z,22.60
2022-08-24T07:38:12.798Z,22.60
2022-08-24T07:39:15.707Z,22.50
2022-08-24T07:40:18.278Z,22.50
2022-08-24T07:41:56.718Z,22.40
2022-08-24T07:42:49.453Z,22.50
2022-08-24T07:43:52.309Z,22.50
2022-08-24T07:44:55.892Z,22.70
2022-08-24T07:45:59.178Z,22.80
2022-08-24T07:47:20.692Z,22.90
2022-08-24T07:48:28.653Z,23.10
2022-08-24T07:49:37.279Z,23.30
2022-08-24T07:50:42.798Z,23.30
2022-08-24T07:51:47.004Z,23.60
2022-08-24T07:52:50.545Z,24.00
2022-08-24T07:53:54.200Z,24.30
2022-08-24T07:55:03.289Z,24.60
2022-08-24T07:56:05.932Z,24.80
2022-08-24T07:57:10.761Z,24.80
2022-08-24T07:58:13.685Z,24.60
2022-08-24T07:59:16.649Z,24.50
2022-08-24T08:00:20.044Z,24.50
2022-08-24T08:01:28.608Z,24.60
2022-08-24T08:02:35.054Z,24.50
2022-08-24T08:03:41.079Z,24.70
2022-08-24T08:04:43.218Z,24.80
2022-08-24T08:05:46.442Z,24.90
2022-08-24T08:06:49.571Z,24.80
2022-08-24T08:07:53.566Z,24.70
2022-08-24T08:08:56.041Z,24.60
2022-08-24T08:10:00.182Z,24.50
2022-08-24T08:11:03.850Z,24.50
2022-08-24T08:12:09.253Z,24.50
2022-08-24T08:13:14.167Z,24.40
2022-08-24T08:14:16.384Z,24.30
2022-08-24T08:15:19.484Z,24.30
2022-08-24T08:16:30.136Z,24.20
2022-08-24T08:17:33.279Z,24.20
2022-08-24T08:18:36.455Z,24.10
2022-08-24T08:19:44.917Z,24.10
2022-08-24T08:20:48.676Z,24.20
2022-08-24T08:22:11.504Z,24.10
2022-08-24T08:23:50.844Z,24.10
2022-08-24T08:25:02.006Z,23.90
2022-08-24T08:26:04.170Z,23.70
2022-08-24T08:27:27.514Z,23.60
2022-08-24T08:28:35.679Z,23.50
2022-08-24T08:29:40.500Z,23.60
2022-08-24T08:30:45.246Z,23.50
2022-08-24T08:31:47.862Z,23.40
2022-08-24T08:32:50.901Z,23.50
2022-08-24T08:33:53.102Z,23.40
2022-08-24T08:35:00.174Z,23.40
2022-08-24T08:36:09.295Z,23.30
2022-08-24T08:37:16.066Z,23.30
2022-08-24T08:38:19.381Z,23.30
2022-08-24T08:39:22.777Z,23.40
2022-08-24T08:40:42.210Z,23.30
2022-08-24T08:42:14.921Z,23.30
2022-08-24T08:43:34.374Z,23.20
2022-08-24T08:44:46.937Z,23.30
2022-08-24T08:46:13.188Z,23.20
2022-08-24T08:48:14.021Z,23.10
2022-08-24T08:49:42.109Z,23.00
2022-08-24T08:51:19.279Z,22.80
2022-08-24T08:52:57.866Z,22.80
2022-08-24T08:54:22.466Z,22.70
2022-08-24T08:55:32.580Z,22.70
2022-08-24T08:56:48.312Z,22.70
2022-08-24T08:58:03.728Z,22.70
2022-08-24T08:59:15.481Z,22.80
2022-08-24T09:00:30.845Z,22.70
2022-08-24T09:01:48.079Z,22.80
2022-08-24T09:03:26.973Z,22.80
2022-08-24T09:05:28.584Z,22.90
2022-08-24T09:07:00.082Z,23.00
2022-08-24T09:08:18.977Z,22.90
2022-08-24T09:10:05.567Z,22.90
2022-08-24T09:11:20.477Z,22.90
2022-08-24T09:12:36.779Z,22.80
2022-08-24T09:13:53.854Z,22.80
2022-08-24T09:15:23.332Z,22.80
2022-08-24T09:16:42.181Z,22.90
2022-08-24T09:18:06.663Z,22.90
2022-08-24T09:19:33.925Z,23.00
2022-08-24T09:20:54.357Z,23.10
2022-08-24T09:22:11.232Z,23.10
2022-08-24T09:23:22.910Z,23.20
2022-08-24T09:25:07.159Z,23.20
2022-08-24T09:26:24.206Z,23.40
2022-08-24T09:27:40.477Z,23.40
2022-08-24T09:28:49.394Z,23.40
2022-08-24T09:30:01.950Z,23.40
2022-08-24T09:31:28.019Z,23.40
2022-08-24T09:32:45.746Z,23.20
2022-08-24T09:34:07.138Z,23.20
2022-08-24T09:35:26.320Z,23.10
2022-08-24T09:36:41.458Z,22.90
2022-08-24T09:38:00.205Z,22.90
2022-08-24T09:39:08.472Z,22.80
2022-08-24T09:40:29.412Z,22.90
2022-08-24T09:41:55.999Z,23.10
2022-08-24T09:43:26.629Z,23.20
2022-08-24T09:44:55.634Z,23.30
2022-08-24T09:46:41.197Z,23.60
2022-08-24T09:48:16.280Z,23.80
2022-08-24T09:49:42.383Z,23.90
2022-08-24T09:51:05.826Z,24.00
2022-08-24T09:52:37.532Z,24.10
2022-08-24T09:54:31.778Z,24.00
2022-08-24T09:55:59.864Z,23.90
2022-08-24T09:57:30.686Z,23.90
2022-08-24T09:58:54.336Z,24.00
2022-08-24T10:00:09.968Z,24.10
2022-08-24T10:01:26.487Z,24.10
2022-08-24T10:02:49.062Z,24.10
2022-08-24T10:04:05.742Z,24.20
2022-08-24T10:05:20.402Z,24.00
2022-08-24T10:06:32.813Z,23.90
2022-08-24T10:07:40.285Z,23.70
2022-08-24T10:09:02.600Z,23.60
2022-08-24T10:10:23.024Z,23.60
2022-08-24T10:11:32.940Z,23.60
2022-08-24T10:12:54.151Z,23.70
2022-08-24T10:14:07.307Z,23.80
2022-08-24T10:15:14.504Z,23.90
2022-08-24T10:16:24.536Z,23.90
2022-08-24T10:17:41.289Z,24.00
2022-08-24T10:18:54.404Z,24.00
2022-08-24T10:20:09.416Z,24.10
2022-08-24T10:21:23.682Z,24.10
2022-08-24T10:22:42.579Z,24.00
2022-08-24T10:24:04.493Z,24.00
2022-08-24T10:25:20.904Z,24.00
2022-08-24T10:26:31.612Z,24.10
2022-08-24T10:27:46.168Z,24.20
2022-08-24T10:29:19.604Z,24.30
2022-08-24T10:30:53.269Z,24.60
2022-08-24T10:32:12.202Z,24.80
2022-08-24T10:33:20.735Z,25.10
2022-08-24T10:34:38.056Z,25.20
2022-08-24T10:36:03.510Z,25.20
2022-08-24T10:37:30.169Z,25.30
2022-08-24T10:38:58.740Z,25.40
2022-08-24T10:40:31.764Z,25.50
2022-08-24T10:41:59.402Z,25.40
2022-08-24T10:43:34.709Z,25.20
2022-08-24T10:44:48.936Z,24.90
2022-08-24T10:46:18.996Z,24.70
2022-08-24T10:47:27.023Z,24.50
2022-08-24T10:48:53.886Z,24.40
2022-08-24T10:50:31.183Z,24.30
2022-08-24T10:51:42.685Z,24.40
2022-08-24T10:53:13.135Z,24.60
2022-08-24T10:54:19.628Z,24.80
2022-08-24T10:55:25.401Z,24.90
2022-08-24T10:56:36.931Z,25.10
2022-08-24T10:57:44.636Z,25.20
2022-08-24T10:59:03.400Z,25.20
2022-08-24T11:00:11.761Z,25.20
2022-08-24T11:01:27.495Z,25.10
2022-08-24T11:02:32.938Z,25.10
2022-08-24T11:03:50.279Z,25.00
2022-08-24T11:04:57.953Z,25.00
2022-08-24T11:05:59.947Z,24.90
2022-08-24T11:07:10.250Z,24.90
2022-08-24T11:08:21.040Z,24.80
2022-08-24T11:09:24.013Z,24.80
2022-08-24T11:10:29.329Z,24.80
2022-08-24T11:11:36.442Z,24.70
2022-08-24T11:12:44.814Z,24.70
2022-08-24T11:13:52.358Z,24.60
2022-08-24T11:14:58.275Z,24.50
2022-08-24T11:16:03.055Z,24.40
2022-08-24T11:17:16.924Z,24.40
2022-08-24T11:18:19.422Z,24.40
2022-08-24T11:19:33.048Z,24.30
2022-08-24T11:20:39.496Z,24.30
2022-08-24T11:21:47.360Z,24.30
2022-08-24T11:23:00.955Z,24.30
2022-08-24T11:24:05.118Z,24.30
2022-08-24T11:25:15.727Z,24.30
2022-08-24T11:26:21.447Z,24.30
2022-08-24T11:27:32.168Z,24.40
2022-08-24T11:28:38.946Z,24.50
2022-08-24T11:30:05.578Z,24.70
2022-08-24T11:31:14.489Z,24.70
2022-08-24T11:32:26.945Z,24.80
2022-08-24T11:33:34.197Z,24.90
2022-08-24T11:34:39.568Z,24.90
2022-08-24T11:35:42.488Z,24.90
2022-08-24T11:36:45.083Z,24.90
2022-08-24T11:37:51.466Z,24.90
2022-08-24T11:39:12.876Z,24.90
2022-08-24T11:40:19.750Z,24.90
2022-08-24T11:41:30.524Z,25.00
2022-08-24T11:42:53.182Z,25.10
2022-08-24T11:44:03.263Z,25.10
2022-08-24T11:45:12.436Z,25.10
2022-08-24T11:46:24.168Z,25.20
2022-08-24T11:47:59.871Z,25.20
2022-08-24T11:49:10.905Z,25.20
2022-08-24T11:50:24.253Z,25.20
2022-08-24T11:51:42.191Z,25.20
2022-08-24T11:52:53.048Z,25.20
2022-08-24T11:54:04.154Z,25.20
2022-08-24T11:55:14.765Z,25.30
2022-08-24T11:56:25.898Z,25.20
2022-08-24T11:57:33.550Z,25.20
2022-08-24T11:58:49.318Z,25.20
2022-08-24T11:59:58.446Z,25.20
2022-08-24T12:01:06.911Z,25.20
2022-08-24T12:02:17.544Z,25.20
2022-08-24T12:03:37.816Z,25.20
2022-08-24T12:04:54.508Z,25.20
2022-08-24T12:06:02.612Z,25.30
2022-08-24T12:07:20.362Z,25.30
2022-08-24T12:08:33.727Z,25.40
2022-08-24T12:09:54.107Z,25.50
2022-08-24T12:11:04.423Z,25.50
2022-08-24T12:12:16.467Z,25.60
2022-08-24T12:13:33.853Z,25.70
2022-08-24T12:14:44.062Z,25.80
2022-08-24T12:15:52.334Z,25.90
2022-08-24T12:17:02.270Z,26.00
2022-08-24T12:18:16.909Z,26.10
2022-08-24T12:19:24.758Z,26.10
2022-08-24T12:20:31.998Z,26.10
2022-08-24T12:21:40.687Z,26.00
2022-08-24T12:22:43.903Z,25.90
2022-08-24T12:23:50.282Z,26.00
2022-08-24T12:24:56.272Z,25.90
2022-08-24T12:26:04.552Z,25.90
2022-08-24T12:27:11.916Z,25.80
2022-08-24T12:28:17.399Z,25.70
2022-08-24T12:29:27.326Z,25.70
2022-08-24T12:30:31.084Z,25.70
2022-08-24T12:31:41.145Z,25.60
2022-08-24T12:32:48.547Z,25.50
2022-08-24T12:33:53.184Z,25.50
2022-08-24T12:35:01.486Z,25.40
2022-08-24T12:36:15.104Z,25.40
2022-08-24T12:37:23.565Z,25.30
2022-08-24T12:38:28.856Z,25.30
2022-08-24T12:39:37.720Z,25.30
2022-08-24T12:40:47.985Z,25.30
2022-08-24T12:42:00.869Z,25.40
2022-08-24T12:43:08.657Z,25.50
2022-08-24T12:44:13.544Z,25.50
2022-08-24T12:45:19.183Z,25.50
2022-08-24T12:46:27.582Z,25.60
2022-08-24T12:47:36.933Z,25.70
2022-08-24T12:48:43.774Z,25.70
2022-08-24T12:49:52.570Z,25.80
2022-08-24T12:51:07.919Z,25.90
2022-08-24T12:52:58.383Z,25.90
2022-08-24T12:54:19.705Z,26.10
2022-08-24T12:56:02.995Z,26.20
2022-08-24T12:57:32.315Z,26.30
2022-08-24T12:58:57.802Z,26.40
2022-08-24T13:00:08.149Z,26.30
2022-08-24T13:01:11.833Z,26.30
2022-08-24T13:02:33.712Z,26.40
2022-08-24T13:03:38.209Z,26.30
2022-08-24T13:04:55.032Z,26.30
2022-08-24T13:06:00.553Z,26.20
2022-08-24T13:07:08.306Z,26.10
2022-08-24T13:08:13.615Z,25.90
2022-08-24T13:09:29.227Z,25.90
2022-08-24T13:10:44.893Z,25.80
2022-08-24T13:11:48.329Z,25.70
2022-08-24T13:13:10.926Z,25.70
2022-08-24T13:14:20.916Z,25.70
2022-08-24T13:15:52.144Z,25.70
2022-08-24T13:17:14.495Z,25.70
2022-08-24T13:19:13.671Z,25.80
2022-08-24T13:20:23.486Z,25.90
2022-08-24T13:21:51.756Z,26.00
2022-08-24T13:23:06.802Z,26.00
2022-08-24T13:24:50.195Z,26.00
2022-08-24T13:25:57.610Z,25.90
2022-08-24T13:27:46.779Z,26.00
2022-08-24T13:28:55.578Z,26.10
2022-08-24T13:30:07.161Z,26.00
2022-08-24T13:31:21.250Z,26.10
2022-08-24T13:32:31.476Z,26.10
2022-08-24T13:33:46.492Z,26.20
2022-08-24T13:34:51.577Z,26.30
2022-08-24T13:35:58.805Z,26.40
2022-08-24T13:37:14.306Z,26.50
2022-08-24T13:39:00.950Z,26.50
2022-08-24T13:40:17.634Z,26.50
2022-08-24T13:41:55.260Z,26.50
2022-08-24T13:43:10.394Z,26.50
2022-08-24T13:44:23.283Z,26.50
2022-08-24T13:45:34.313Z,26.50
2022-08-24T13:46:48.942Z,26.60
2022-08-24T13:48:02.745Z,26.60
2022-08-24T13:49:40.283Z,26.60
2022-08-24T13:51:06.589Z,26.70
2022-08-24T13:52:17.603Z,26.70
2022-08-24T13:53:56.512Z,26.80
2022-08-24T13:55:15.285Z,26.80
2022-08-24T13:56:58.325Z,26.80
2022-08-24T13:58:35.743Z,26.80
2022-08-24T14:00:02.983Z,26.80
2022-08-24T14:01:25.328Z,26.70
2022-08-24T14:02:38.322Z,26.60
2022-08-24T14:04:09.053Z,26.50
2022-08-24T14:05:23.465Z,26.40
2022-08-24T14:06:37.230Z,26.40
2022-08-24T14:07:52.235Z,26.40
2022-08-24T14:09:06.253Z,26.30
2022-08-24T14:10:14.982Z,26.30
2022-08-24T14:11:35.183Z,26.30
2022-08-24T14:12:46.339Z,26.20
2022-08-24T14:13:58.547Z,26.20
2022-08-24T14:15:15.798Z,26.20
2022-08-24T14:16:56.767Z,26.20
2022-08-24T14:18:11.417Z,26.20
2022-08-24T14:19:22.687Z,26.20
2022-08-24T14:21:02.854Z,26.30
2022-08-24T14:22:19.042Z,26.30
2022-08-24T14:23:33.927Z,26.40
2022-08-24T14:24:45.271Z,26.40
2022-08-24T14:25:51.636Z,26.50
2022-08-24T14:27:08.482Z,26.50
2022-08-24T14:28:43.509Z,26.60
2022-08-24T14:29:47.448Z,26.60
2022-08-24T14:31:21.329Z,26.70
2022-08-24T14:32:30.132Z,26.70
2022-08-24T14:33:36.406Z,26.70
2022-08-24T14:34:48.746Z,26.70
2022-08-24T14:36:14.970Z,26.70
2022-08-24T14:37:22.776Z,26.80
2022-08-24T14:38:58.505Z,26.80
2022-08-24T14:40:17.199Z,26.80
2022-08-24T14:41:36.353Z,26.90
2022-08-24T14:42:44.084Z,26.90
2022-08-24T14:44:10.978Z,26.90
2022-08-24T14:45:23.005Z,27.00
2022-08-24T14:46:34.148Z,27.10
2022-08-24T14:47:49.161Z,27.10
2022-08-24T14:49:01.588Z,27.10
2022-08-24T14:50:14.833Z,27.10
2022-08-24T14:51:35.006Z,27.00
2022-08-24T14:52:54.880Z,27.00
2022-08-24T14:54:01.923Z,27.00
2022-08-24T14:55:11.744Z,26.90
2022-08-24T14:56:24.764Z,26.90
2022-08-24T14:57:48.710Z,26.80
2022-08-24T15:00:14.214Z,26.70
2022-08-24T15:01:39.204Z,26.60
2022-08-24T15:03:17.051Z,26.60
2022-08-24T15:04:37.675Z,26.60